createdAt,value
2022-09-09T00:00:07.261Z,100514.72
2022-09-09T00:01:44.440Z,100509.25
2022-09-09T00:03:18.146Z,100509.84
2022-09-09T00:05:02.330Z,100518.72
2022-09-09T00:06:36.375Z,100512.63
2022-09-09T00:08:12.308Z,100499.13
2022-09-09T00:09:46.717Z,100506.31
2022-09-09T00:11:21.568Z,100503.75
2022-09-09T00:12:58.494Z,100502.06
2022-09-09T00:14:35.704Z,100495.53
2022-09-09T00:16:11.725Z,100502.41
2022-09-09T00:17:47.805Z,100496.59
2022-09-09T00:19:24.141Z,100502.78
2022-09-09T00:21:03.783Z,100506.44
2022-09-09T00:22:36.048Z,100505.41
2022-09-09T00:24:18.494Z,100500.31
2022-09-09T00:25:54.697Z,100506.66
2022-09-09T00:27:30.874Z,100503.13
2022-09-09T00:29:06.423Z,100501.53
2022-09-09T00:30:38.768Z,100504.94
2022-09-09T00:32:13.658Z,100507.13
2022-09-09T00:33:45.363Z,100508.41
2022-09-09T00:35:19.028Z,100510.94
2022-09-09T00:36:53.629Z,100497.97
2022-09-09T00:38:29.480Z,100509.25
2022-09-09T00:40:03.759Z,100499.97
2022-09-09T00:41:43.367Z,100498.28
2022-09-09T00:43:22.163Z,100492.34
2022-09-09T00:44:57.283Z,100493.47
2022-09-09T00:46:39.361Z,100480.75
2022-09-09T00:48:12.743Z,100493.09
2022-09-09T00:49:50.332Z,100494.06
2022-09-09T00:51:26.440Z,100486.63
2022-09-09T00:53:06.863Z,100492.53
2022-09-09T00:54:45.878Z,100491.44
2022-09-09T00:56:20.117Z,100495.34
2022-09-09T00:57:53.198Z,100489.31
2022-09-09T00:59:29.272Z,100494.25
2022-09-09T01:01:05.792Z,100500.78
2022-09-09T01:02:40.626Z,100498.28
2022-09-09T01:04:17.190Z,100500.72
2022-09-09T01:05:52.604Z,100493.53
2022-09-09T01:07:24.157Z,100497.78
2022-09-09T01:09:03.643Z,100494.69
2022-09-09T01:10:42.588Z,100490.91
2022-09-09T01:12:16.077Z,100492.47
2022-09-09T01:13:53.230Z,100498.66
2022-09-09T01:15:26.912Z,100486.13
2022-09-09T01:17:00.805Z,100491.63
2022-09-09T01:18:36.420Z,100488.78
2022-09-09T01:20:13.767Z,100486.59
2022-09-09T01:21:59.147Z,100491.25
2022-09-09T01:23:39.493Z,100488.31
2022-09-09T01:26:05.781Z,100487.78
2022-09-09T01:27:38.410Z,100482.88
2022-09-09T01:29:10.695Z,100485.16
2022-09-09T01:30:44.856Z,100495.47
2022-09-09T01:32:40.273Z,100484.34
2022-09-09T01:34:13.035Z,100484.66
2022-09-09T01:35:49.167Z,100488.66
2022-09-09T01:37:21.966Z,100493.00
2022-09-09T01:38:53.857Z,100484.69
2022-09-09T01:40:26.152Z,100481.47
2022-09-09T01:42:00.069Z,100481.47
2022-09-09T01:43:32.647Z,100477.78
2022-09-09T01:45:05.772Z,100474.41
2022-09-09T01:46:37.236Z,100474.41
2022-09-09T01:48:09.706Z,100474.69
2022-09-09T01:49:50.242Z,100482.97
2022-09-09T01:51:27.673Z,100480.69
2022-09-09T01:53:00.683Z,100478.16
2022-09-09T01:54:35.788Z,100476.75
2022-09-09T01:56:30.020Z,100481.38
2022-09-09T01:58:12.445Z,100479.81
2022-09-09T01:59:55.710Z,100473.34
2022-09-09T02:01:33.573Z,100487.44
2022-09-09T02:03:09.448Z,100486.16
2022-09-09T02:04:52.417Z,100481.28
2022-09-09T02:06:29.759Z,100480.88
2022-09-09T02:08:09.517Z,100479.06
2022-09-09T02:09:57.010Z,100483.31
2022-09-09T02:11:29.935Z,100484.16
2022-09-09T02:13:26.045Z,100490.31
2022-09-09T02:15:01.982Z,100484.84
2022-09-09T02:16:43.512Z,100490.91
2022-09-09T02:18:20.970Z,100484.84
2022-09-09T02:19:55.895Z,100477.94
2022-09-09T02:21:42.845Z,100479.63
2022-09-09T02:23:15.976Z,100484.97
2022-09-09T02:24:51.823Z,100474.25
2022-09-09T02:26:28.208Z,100483.44
2022-09-09T02:28:08.353Z,100476.50
2022-09-09T02:29:42.458Z,100481.28
2022-09-09T02:31:16.126Z,100481.66
2022-09-09T02:32:49.652Z,100477.59
2022-09-09T02:34:24.592Z,100476.03
2022-09-09T02:36:04.334Z,100474.59
2022-09-09T02:37:38.177Z,100469.09
2022-09-09T02:39:11.247Z,100470.78
2022-09-09T02:40:42.712Z,100480.41
2022-09-09T02:42:15.819Z,100478.44
2022-09-09T02:43:48.469Z,100472.94
2022-09-09T02:45:26.028Z,100470.97
2022-09-09T02:47:06.321Z,100472.78
2022-09-09T02:48:44.840Z,100470.84
2022-09-09T02:50:18.452Z,100466.31
2022-09-09T02:51:53.342Z,100466.19
2022-09-09T02:53:29.172Z,100466.78
2022-09-09T02:55:05.647Z,100469.31
2022-09-09T02:56:40.391Z,100468.22
2022-09-09T02:58:14.392Z,100465.53
2022-09-09T02:59:47.513Z,100464.41
2022-09-09T03:01:20.361Z,100461.59
2022-09-09T03:02:52.282Z,100460.59
2022-09-09T03:04:25.336Z,100444.31
2022-09-09T03:05:57.872Z,100447.72
2022-09-09T03:07:30.805Z,100454.88
2022-09-09T03:09:03.563Z,100460.13
2022-09-09T03:10:35.870Z,100458.41
2022-09-09T03:12:08.109Z,100454.03
2022-09-09T03:13:40.342Z,100451.22
2022-09-09T03:15:12.239Z,100452.94
2022-09-09T03:16:47.298Z,100448.28
2022-09-09T03:18:18.891Z,100452.09
2022-09-09T03:19:55.457Z,100459.53
2022-09-09T03:21:27.295Z,100448.34
2022-09-09T03:23:00.675Z,100447.47
2022-09-09T03:24:32.174Z,100449.47
2022-09-09T03:26:03.653Z,100453.13
2022-09-09T03:27:44.114Z,100454.50
2022-09-09T03:29:17.429Z,100454.22
2022-09-09T03:30:49.919Z,100449.13
2022-09-09T03:32:23.412Z,100456.44
2022-09-09T03:33:54.858Z,100450.22
2022-09-09T03:35:26.732Z,100453.88
2022-09-09T03:36:58.508Z,100449.66
2022-09-09T03:38:31.052Z,100455.25
2022-09-09T03:40:03.908Z,100456.53
2022-09-09T03:41:35.408Z,100448.75
2022-09-09T03:43:07.636Z,100456.06
2022-09-09T03:44:39.271Z,100452.66
2022-09-09T03:46:11.296Z,100456.19
2022-09-09T03:47:44.350Z,100454.25
2022-09-09T03:49:16.270Z,100453.41
2022-09-09T03:50:48.247Z,100454.25
2022-09-09T03:52:23.665Z,100451.44
2022-09-09T03:53:57.765Z,100448.75
2022-09-09T03:55:29.259Z,100458.63
2022-09-09T03:57:00.898Z,100454.50
2022-09-09T03:58:32.405Z,100453.06
2022-09-09T04:00:11.329Z,100458.25
2022-09-09T04:01:49.593Z,100461.03
2022-09-09T04:03:27.636Z,100449.50
2022-09-09T04:05:00.649Z,100451.91
2022-09-09T04:06:32.127Z,100454.84
2022-09-09T04:08:03.575Z,100456.53
2022-09-09T04:09:35.846Z,100446.09
2022-09-09T04:11:07.793Z,100452.41
2022-09-09T04:12:40.446Z,100450.72
2022-09-09T04:14:12.011Z,100456.06
2022-09-09T04:15:44.233Z,100452.00
2022-09-09T04:17:15.693Z,100455.63
2022-09-09T04:18:49.081Z,100456.38
2022-09-09T04:20:23.023Z,100450.16
2022-09-09T04:21:54.593Z,100451.69
2022-09-09T04:23:29.780Z,100448.78
2022-09-09T04:25:02.713Z,100448.63
2022-09-09T04:26:34.847Z,100456.41
2022-09-09T04:28:06.317Z,100452.88
2022-09-09T04:29:39.088Z,100447.06
2022-09-09T04:31:11.992Z,100446.34
2022-09-09T04:32:45.024Z,100454.78
2022-09-09T04:34:18.358Z,100448.00
2022-09-09T04:35:50.711Z,100451.06
2022-09-09T04:37:23.922Z,100444.09
2022-09-09T04:38:55.408Z,100449.63
2022-09-09T04:40:26.886Z,100453.50
2022-09-09T04:41:58.502Z,100450.13
2022-09-09T04:43:31.657Z,100454.03
2022-09-09T04:45:04.191Z,100452.59
2022-09-09T04:46:36.298Z,100445.56
2022-09-09T04:48:08.064Z,100451.59
2022-09-09T04:49:40.866Z,100446.53
2022-09-09T04:51:14.036Z,100447.03
2022-09-09T04:52:45.619Z,100460.66
2022-09-09T04:54:17.061Z,100459.25
2022-09-09T04:55:50.237Z,100453.16
2022-09-09T04:57:21.698Z,100453.16
2022-09-09T04:58:53.417Z,100450.63
2022-09-09T05:00:28.284Z,100456.34
2022-09-09T05:02:01.919Z,100449.41
2022-09-09T05:03:33.577Z,100453.47
2022-09-09T05:05:07.316Z,100451.66
2022-09-09T05:06:38.896Z,100458.53
2022-09-09T05:08:10.815Z,100452.09
2022-09-09T05:09:43.569Z,100456.34
2022-09-09T05:11:17.292Z,100458.38
2022-09-09T05:12:53.747Z,100459.94
2022-09-09T05:14:25.545Z,100459.56
2022-09-09T05:15:57.098Z,100451.53
2022-09-09T05:17:28.796Z,100454.09
2022-09-09T05:19:00.445Z,100446.06
2022-09-09T05:20:43.477Z,100450.31
2022-09-09T05:22:19.355Z,100449.22
2022-09-09T05:23:52.715Z,100448.06
2022-09-09T05:25:28.028Z,100446.00
2022-09-09T05:27:02.668Z,100446.59
2022-09-09T05:28:35.694Z,100443.53
2022-09-09T05:30:08.980Z,100442.28
2022-09-09T05:31:40.602Z,100446.19
2022-09-09T05:33:16.042Z,100445.78
2022-09-09T05:34:47.729Z,100440.75
2022-09-09T05:36:22.391Z,100442.06
2022-09-09T05:38:01.584Z,100448.69
2022-09-09T05:39:33.973Z,100450.13
2022-09-09T05:41:06.278Z,100440.00
2022-09-09T05:42:37.744Z,100446.69
2022-09-09T05:44:09.491Z,100449.06
2022-09-09T05:45:43.795Z,100444.16
2022-09-09T05:47:16.145Z,100444.88
2022-09-09T05:48:49.202Z,100449.97
2022-09-09T05:50:21.120Z,100448.88
2022-09-09T05:51:54.021Z,100446.88
2022-09-09T05:53:26.299Z,100456.47
2022-09-09T05:54:58.034Z,100459.88
2022-09-09T05:56:30.039Z,100465.22
2022-09-09T05:58:03.700Z,100459.59
2022-09-09T05:59:35.145Z,100462.28
2022-09-09T06:01:08.445Z,100457.63
2022-09-09T06:02:42.290Z,100462.72
2022-09-09T06:04:16.962Z,100461.59
2022-09-09T06:05:48.475Z,100464.13
2022-09-09T06:07:21.318Z,100460.59
2022-09-09T06:08:53.826Z,100458.06
2022-09-09T06:10:25.923Z,100464.97
2022-09-09T06:11:59.439Z,100460.47
2022-09-09T06:13:31.638Z,100463.28
2022-09-09T06:15:03.470Z,100463.28
2022-09-09T06:16:35.587Z,100471.19
2022-09-09T06:18:07.109Z,100464.88
2022-09-09T06:19:38.604Z,100464.00
2022-09-09T06:21:12.490Z,100468.41
2022-09-09T06:22:49.660Z,100465.84
2022-09-09T06:24:21.174Z,100471.19
2022-09-09T06:25:53.065Z,100466.59
2022-09-09T06:27:24.537Z,100469.00
2022-09-09T06:28:56.408Z,100464.34
2022-09-09T06:30:31.306Z,100467.75
2022-09-09T06:32:03.369Z,100468.72
2022-09-09T06:33:36.802Z,100460.41
2022-09-09T06:35:08.765Z,100470.13
2022-09-09T06:36:40.837Z,100465.91
2022-09-09T06:38:14.121Z,100461.38
2022-09-09T06:39:45.714Z,100463.50
2022-09-09T06:41:17.915Z,100467.16
2022-09-09T06:42:50.176Z,100471.53
2022-09-09T06:44:41.066Z,100465.47
2022-09-09T06:46:18.355Z,100462.44
2022-09-09T06:47:50.974Z,100457.69
2022-09-09T06:49:23.714Z,100460.25
2022-09-09T06:51:02.457Z,100462.41
2022-09-09T06:52:34.601Z,100454.91
2022-09-09T06:54:07.847Z,100457.44
2022-09-09T06:55:41.262Z,100452.69
2022-09-09T06:57:35.924Z,100462.00
2022-09-09T06:59:06.758Z,100459.47
2022-09-09T07:00:39.672Z,100463.84
2022-09-09T07:02:11.382Z,100466.53
2022-09-09T07:03:46.347Z,100469.22
2022-09-09T07:05:17.979Z,100464.41
2022-09-09T07:06:53.309Z,100468.34
2022-09-09T07:08:29.124Z,100468.47
2022-09-09T07:10:01.946Z,100464.97
2022-09-09T07:11:38.322Z,100468.22
2022-09-09T07:13:10.863Z,100477.38
2022-09-09T07:14:42.382Z,100472.41
2022-09-09T07:16:16.397Z,100474.63
2022-09-09T07:17:48.994Z,100475.94
2022-09-09T07:19:21.688Z,100473.72
2022-09-09T07:20:57.872Z,100474.41
2022-09-09T07:22:30.155Z,100483.28
2022-09-09T07:24:02.622Z,100485.66
2022-09-09T07:25:35.604Z,100473.84
2022-09-09T07:27:07.371Z,100481.38
2022-09-09T07:28:40.646Z,100478.56
2022-09-09T07:30:17.567Z,100475.34
2022-09-09T07:31:52.736Z,100474.06
2022-09-09T07:33:31.549Z,100473.91
2022-09-09T07:35:03.065Z,100475.91
2022-09-09T07:36:35.793Z,100474.75
2022-09-09T07:38:07.719Z,100482.09
2022-09-09T07:39:39.866Z,100485.22
2022-09-09T07:41:14.431Z,100486.06
2022-09-09T07:42:47.264Z,100481.56
2022-09-09T07:44:20.887Z,100488.22
2022-09-09T07:45:58.455Z,100489.50
2022-09-09T07:47:30.000Z,100490.50
2022-09-09T07:49:03.166Z,100499.53
2022-09-09T07:50:38.157Z,100494.75
2022-09-09T07:52:09.860Z,100490.06
2022-09-09T07:53:44.604Z,100477.03
2022-09-09T07:55:16.404Z,100492.28
2022-09-09T07:56:51.410Z,100483.53
2022-09-09T07:58:23.398Z,100500.72
2022-09-09T07:59:55.391Z,100492.22
2022-09-09T08:01:28.766Z,100488.16
2022-09-09T08:03:02.997Z,100488.16
2022-09-09T08:04:35.619Z,100490.38
2022-09-09T08:06:09.047Z,100485.56
2022-09-09T08:07:42.429Z,100485.25
2022-09-09T08:09:15.058Z,100488.38
2022-09-09T08:10:47.430Z,100486.81
2022-09-09T08:12:20.469Z,100487.06
2022-09-09T08:13:54.797Z,100479.47
2022-09-09T08:15:27.716Z,100493.16
2022-09-09T08:16:59.308Z,100489.50
2022-09-09T08:18:35.267Z,100487.66
2022-09-09T08:20:06.989Z,100486.13
2022-09-09T08:21:41.014Z,100488.38
2022-09-09T08:23:12.680Z,100498.84
2022-09-09T08:24:44.247Z,100494.56
2022-09-09T08:26:16.837Z,100491.47
2022-09-09T08:27:49.650Z,100499.09
2022-09-09T08:29:21.532Z,100493.72
2022-09-09T08:30:54.250Z,100496.28
2022-09-09T08:32:27.231Z,100498.81
2022-09-09T08:34:04.292Z,100494.19
2022-09-09T08:35:35.881Z,100496.44
2022-09-09T08:37:07.364Z,100499.38
2022-09-09T08:38:43.566Z,100489.91
2022-09-09T08:40:22.400Z,100493.88
2022-09-09T08:42:10.132Z,100503.22
2022-09-09T08:43:47.755Z,100508.41
2022-09-09T08:45:21.965Z,100492.31
2022-09-09T08:46:58.838Z,100497.81
2022-09-09T08:48:40.087Z,100494.13
2022-09-09T08:50:20.655Z,100490.19
2022-09-09T08:51:55.785Z,100494.44
2022-09-09T08:53:31.116Z,100499.66
2022-09-09T08:55:04.750Z,100500.50
2022-09-09T08:56:37.091Z,100497.69
2022-09-09T08:58:12.516Z,100495.56
2022-09-09T08:59:45.407Z,100506.03
2022-09-09T09:01:34.608Z,100510.66
2022-09-09T09:03:15.546Z,100506.44
2022-09-09T09:04:55.639Z,100515.63
2022-09-09T09:06:36.996Z,100511.81
2022-09-09T09:08:14.530Z,100505.72
2022-09-09T09:09:52.201Z,100509.13
2022-09-09T09:11:23.991Z,100514.06
2022-09-09T09:12:56.078Z,100509.84
2022-09-09T09:14:29.809Z,100517.03
2022-09-09T09:16:26.392Z,100518.44
2022-09-09T09:17:58.523Z,100522.94
2022-09-09T09:19:31.781Z,100520.13
2022-09-09T09:21:06.226Z,100518.03
2022-09-09T09:22:40.437Z,100523.53
2022-09-09T09:24:21.427Z,100517.19
2022-09-09T09:25:58.447Z,100523.97
2022-09-09T09:27:32.371Z,100524.22
2022-09-09T09:29:09.442Z,100518.03
2022-09-09T09:30:43.549Z,100516.63
2022-09-09T09:32:19.475Z,100520.00
2022-09-09T09:33:54.008Z,100509.53
2022-09-09T09:35:28.168Z,100504.72
2022-09-09T09:37:04.138Z,100510.38
2022-09-09T09:40:31.097Z,100515.47
2022-09-09T09:42:08.773Z,100510.41
2022-09-09T09:43:42.146Z,100498.53
2022-09-09T09:45:22.130Z,100511.25
2022-09-09T09:46:54.304Z,100497.53
2022-09-09T09:48:28.249Z,100502.91
2022-09-09T09:50:00.823Z,100508.28
2022-09-09T09:51:36.471Z,100511.50
2022-09-09T09:53:20.344Z,100513.47
2022-09-09T09:54:53.389Z,100507.81
2022-09-09T09:56:33.428Z,100511.63
2022-09-09T09:58:07.982Z,100510.53
2022-09-09T09:59:41.772Z,100508.09
2022-09-09T10:01:21.529Z,100492.56
2022-09-09T10:02:53.656Z,100509.53
2022-09-09T10:04:30.788Z,100502.44
2022-09-09T10:06:02.381Z,100500.75
2022-09-09T10:07:34.335Z,100500.19
2022-09-09T10:09:21.586Z,100513.34
2022-09-09T10:11:00.600Z,100507.53
2022-09-09T10:12:40.378Z,100495.34
2022-09-09T10:14:20.163Z,100498.59
2022-09-09T10:15:57.290Z,100498.28
2022-09-09T10:17:33.806Z,100495.72
2022-09-09T10:19:07.487Z,100493.97
2022-09-09T10:20:46.751Z,100494.81
2022-09-09T10:22:28.547Z,100506.59
2022-09-09T10:24:17.955Z,100502.50
2022-09-09T10:26:01.122Z,100504.63
2022-09-09T10:27:36.803Z,100495.63
2022-09-09T10:29:17.907Z,100493.38
2022-09-09T10:30:54.545Z,100503.25
2022-09-09T10:32:34.524Z,100495.34
2022-09-09T10:34:14.335Z,100501.00
2022-09-09T10:35:53.439Z,100500.81
2022-09-09T10:37:43.850Z,100497.94
2022-09-09T10:39:19.390Z,100498.94
2022-09-09T10:41:07.240Z,100493.25
2022-09-09T10:42:39.173Z,100494.97
2022-09-09T10:44:18.543Z,100486.47
2022-09-09T10:45:53.922Z,100488.03
2022-09-09T10:47:40.013Z,100480.81
2022-09-09T10:49:22.605Z,100484.91
2022-09-09T10:51:03.339Z,100489.72
2022-09-09T10:52:41.976Z,100488.50
2022-09-09T10:54:24.937Z,100482.72
2022-09-09T10:56:01.045Z,100481.59
2022-09-09T10:57:37.470Z,100482.66
2022-09-09T10:59:13.340Z,100483.91
2022-09-09T11:00:46.773Z,100477.78
2022-09-09T11:02:23.490Z,100481.78
2022-09-09T11:03:57.489Z,100486.44
2022-09-09T11:05:31.061Z,100477.72
2022-09-09T11:07:11.602Z,100480.81
2022-09-09T11:08:43.857Z,100488.59
2022-09-09T11:10:20.067Z,100478.84
2022-09-09T11:11:54.930Z,100486.94
2022-09-09T11:13:32.688Z,100486.44
2022-09-09T11:15:07.011Z,100498.19
2022-09-09T11:16:44.876Z,100496.81
2022-09-09T11:18:19.790Z,100498.63
2022-09-09T11:19:51.815Z,100499.03
2022-09-09T11:21:25.625Z,100492.25
2022-09-09T11:23:01.272Z,100488.84
2022-09-09T11:24:35.288Z,100485.25
2022-09-09T11:26:09.216Z,100498.63
2022-09-09T11:27:46.168Z,100499.47
2022-09-09T11:29:26.733Z,100493.78
2022-09-09T11:31:03.350Z,100494.56
2022-09-09T11:32:49.272Z,100483.50
2022-09-09T11:34:28.408Z,100480.13
2022-09-09T11:36:08.100Z,100485.94
2022-09-09T11:37:52.558Z,100478.34
2022-09-09T11:39:44.011Z,100473.41
2022-09-09T11:41:20.989Z,100485.72
2022-09-09T11:43:02.636Z,100480.91
2022-09-09T11:44:34.416Z,100484.03
2022-09-09T11:46:06.353Z,100489.00
2022-09-09T11:47:38.220Z,100491.13
2022-09-09T11:49:26.277Z,100487.31
2022-09-09T11:50:59.055Z,100492.09
2022-09-09T11:52:36.896Z,100494.66
2022-09-09T11:54:30.220Z,100500.00
2022-09-09T11:56:11.538Z,100489.13
2022-09-09T11:57:48.930Z,100490.28
2022-09-09T11:59:22.409Z,100497.47
2022-09-09T12:00:54.089Z,100500.75
2022-09-09T12:02:27.448Z,100499.31
2022-09-09T12:04:07.301Z,100489.72
2022-09-09T12:05:40.629Z,100491.03
2022-09-09T12:07:26.011Z,100486.81
2022-09-09T12:08:59.560Z,100490.44
2022-09-09T12:10:33.363Z,100483.06
2022-09-09T12:12:21.817Z,100485.84
2022-09-09T12:13:53.796Z,100483.56
2022-09-09T12:15:29.047Z,100486.19
2022-09-09T12:17:10.331Z,100487.78
2022-09-09T12:18:43.773Z,100484.94
2022-09-09T12:20:16.893Z,100491.16
2022-09-09T12:21:52.829Z,100488.63
2022-09-09T12:23:31.549Z,100481.63
2022-09-09T12:25:10.414Z,100489.84
2022-09-09T12:26:45.837Z,100482.13
2022-09-09T12:28:19.889Z,100498.13
2022-09-09T12:29:56.015Z,100495.25
2022-09-09T12:31:33.106Z,100488.09
2022-09-09T12:33:10.554Z,100487.50
2022-09-09T12:34:44.731Z,100487.91
2022-09-09T12:36:18.021Z,100483.78
2022-09-09T12:37:52.755Z,100485.91
2022-09-09T12:39:29.962Z,100478.00
2022-09-09T12:41:01.534Z,100487.50
2022-09-09T12:42:41.010Z,100480.75
2022-09-09T12:44:14.159Z,100474.38
2022-09-09T12:45:46.249Z,100481.44
2022-09-09T12:47:19.322Z,100479.09
2022-09-09T12:48:51.112Z,100477.19
2022-09-09T12:50:23.799Z,100472.25
2022-09-09T12:51:58.199Z,100472.94
2022-09-09T12:53:31.825Z,100482.00
2022-09-09T12:55:04.689Z,100476.38
2022-09-09T12:56:36.814Z,100482.16
2022-09-09T12:58:08.428Z,100467.72
2022-09-09T12:59:42.918Z,100458.50
2022-09-09T13:01:21.761Z,100469.56
2022-09-09T13:02:54.694Z,100467.63
2022-09-09T13:04:26.582Z,100480.41
2022-09-09T13:06:01.239Z,100473.50
2022-09-09T13:07:32.689Z,100474.91
2022-09-09T13:09:04.733Z,100477.22
2022-09-09T13:10:52.873Z,100475.97
2022-09-09T13:12:25.969Z,100475.66
2022-09-09T13:13:58.388Z,100463.16
2022-09-09T13:15:31.859Z,100464.34
2022-09-09T13:17:04.440Z,100464.97
2022-09-09T13:18:37.387Z,100457.81
2022-09-09T13:20:17.008Z,100457.69
2022-09-09T13:21:49.054Z,100471.91
2022-09-09T13:23:21.845Z,100463.59
2022-09-09T13:25:00.183Z,100455.47
2022-09-09T13:26:31.976Z,100469.66
2022-09-09T13:28:04.553Z,100463.88
2022-09-09T13:29:38.153Z,100464.06
2022-09-09T13:31:21.293Z,100458.34
2022-09-09T13:33:21.598Z,100460.59
2022-09-09T13:34:55.215Z,100456.06
2022-09-09T13:36:31.342Z,100442.00
2022-09-09T13:38:10.554Z,100446.34
2022-09-09T13:39:53.220Z,100452.03
2022-09-09T13:41:25.637Z,100451.38
2022-09-09T13:42:57.863Z,100444.78
2022-09-09T13:44:31.190Z,100454.00
2022-09-09T13:46:05.600Z,100445.72
2022-09-09T13:47:38.534Z,100455.91
2022-09-09T13:49:20.562Z,100448.44
2022-09-09T13:50:55.933Z,100450.97
2022-09-09T13:52:28.114Z,100456.94
2022-09-09T13:54:01.498Z,100463.94
2022-09-09T13:55:33.020Z,100461.56
2022-09-09T13:57:05.597Z,100459.41
2022-09-09T13:58:37.086Z,100449.19
2022-09-09T14:00:13.232Z,100444.44
2022-09-09T14:01:45.235Z,100446.53
2022-09-09T14:03:18.375Z,100452.81
2022-09-09T14:04:51.828Z,100439.94
2022-09-09T14:06:23.561Z,100443.75
2022-09-09T14:07:56.510Z,100441.28
2022-09-09T14:09:28.007Z,100449.56
2022-09-09T14:11:00.378Z,100450.25
2022-09-09T14:12:31.944Z,100445.94
2022-09-09T14:14:03.520Z,100457.69
2022-09-09T14:15:35.357Z,100451.31
2022-09-09T14:17:08.186Z,100450.97
2022-09-09T14:18:41.655Z,100464.28
2022-09-09T14:20:16.188Z,100456.47
2022-09-09T14:21:47.681Z,100457.47
2022-09-09T14:23:19.758Z,100474.22
2022-09-09T14:24:51.467Z,100478.59
2022-09-09T14:26:24.376Z,100483.94
2022-09-09T14:27:57.143Z,100490.75
2022-09-09T14:29:28.608Z,100495.28
2022-09-09T14:31:00.682Z,100499.53
2022-09-09T14:32:32.366Z,100486.50
2022-09-09T14:34:05.227Z,100468.47
2022-09-09T14:35:37.171Z,100473.41
2022-09-09T14:37:08.657Z,100475.69
2022-09-09T14:38:43.739Z,100475.72
2022-09-09T14:40:16.700Z,100476.84
2022-09-09T14:41:48.145Z,100493.59
2022-09-09T14:43:19.678Z,100485.09
2022-09-09T14:44:51.172Z,100484.16
2022-09-09T14:46:22.798Z,100500.16
2022-09-09T14:47:54.394Z,100504.19
2022-09-09T14:49:27.275Z,100500.31
2022-09-09T14:51:05.364Z,100498.38
2022-09-09T14:52:37.715Z,100501.16
2022-09-09T14:54:10.124Z,100494.25
2022-09-09T14:55:41.711Z,100495.06
2022-09-09T14:57:13.275Z,100488.28
2022-09-09T14:58:45.722Z,100482.72
2022-09-09T15:00:17.398Z,100480.53
2022-09-09T15:01:49.041Z,100480.00
2022-09-09T15:03:20.573Z,100471.50
2022-09-09T15:04:58.119Z,100474.84
2022-09-09T15:06:31.150Z,100463.88
2022-09-09T15:08:02.862Z,100464.31
2022-09-09T15:09:34.373Z,100458.78
2022-09-09T15:11:11.171Z,100459.19
2022-09-09T15:12:42.854Z,100464.66
2022-09-09T15:14:14.291Z,100472.84
2022-09-09T15:15:45.890Z,100460.66
2022-09-09T15:17:17.694Z,100461.56
2022-09-09T15:18:51.861Z,100465.25
2022-09-09T15:20:24.707Z,100469.81
2022-09-09T15:21:56.380Z,100461.81
2022-09-09T15:23:28.846Z,100459.03
2022-09-09T15:25:00.362Z,100460.81
2022-09-09T15:26:32.155Z,100461.13
2022-09-09T15:28:03.647Z,100450.13
2022-09-09T15:29:35.113Z,100450.84
2022-09-09T15:31:08.157Z,100451.84
2022-09-09T15:32:40.503Z,100454.66
2022-09-09T15:35:45.433Z,100460.41
2022-09-09T15:37:17.282Z,100461.53
2022-09-09T15:38:49.067Z,100463.63
2022-09-09T15:40:20.609Z,100470.25
2022-09-09T15:41:52.409Z,100473.00
2022-09-09T15:43:27.166Z,100472.44
2022-09-09T15:44:58.985Z,100486.50
2022-09-09T15:46:33.551Z,100495.59
2022-09-09T15:48:05.434Z,100489.88
2022-09-09T15:49:37.107Z,100492.75
2022-09-09T15:51:30.831Z,100486.34
2022-09-09T15:53:02.307Z,100488.00
2022-09-09T15:54:35.169Z,100490.91
2022-09-09T15:56:07.554Z,100480.47
2022-09-09T15:57:39.032Z,100479.72
2022-09-09T15:59:10.600Z,100472.44
2022-09-09T16:00:42.455Z,100479.50
2022-09-09T16:02:14.016Z,100484.59
2022-09-09T16:03:51.095Z,100479.25
2022-09-09T16:05:23.304Z,100485.31
2022-09-09T16:06:59.416Z,100480.94
2022-09-09T16:08:32.573Z,100473.41
2022-09-09T16:10:04.601Z,100480.00
2022-09-09T16:11:37.235Z,100483.06
2022-09-09T16:13:09.677Z,100484.28
2022-09-09T16:14:41.968Z,100482.59
2022-09-09T16:16:16.311Z,100492.44
2022-09-09T16:17:47.812Z,100481.00
2022-09-09T16:19:20.017Z,100486.50
2022-09-09T16:20:54.663Z,100483.97
2022-09-09T16:22:28.155Z,100490.16
2022-09-09T16:24:00.680Z,100485.91
2022-09-09T16:25:32.233Z,100492.22
2022-09-09T16:27:03.871Z,100487.00
2022-09-09T16:28:36.735Z,100483.75
2022-09-09T16:30:11.155Z,100489.34
2022-09-09T16:31:43.049Z,100486.22
2022-09-09T16:33:15.954Z,100492.91
2022-09-09T16:34:47.436Z,100499.34
2022-09-09T16:36:19.933Z,100497.06
2022-09-09T16:37:54.111Z,100495.75
2022-09-09T16:39:27.083Z,100500.47
2022-09-09T16:40:59.676Z,100488.22
2022-09-09T16:42:31.170Z,100495.25
2022-09-09T16:44:04.633Z,100495.66
2022-09-09T16:45:42.213Z,100486.06
2022-09-09T16:47:14.119Z,100493.59
2022-09-09T16:48:46.694Z,100483.16
2022-09-09T16:50:18.298Z,100496.91
2022-09-09T16:51:50.687Z,100488.13
2022-09-09T16:53:23.716Z,100492.75
2022-09-09T16:54:55.130Z,100492.00
2022-09-09T16:56:27.520Z,100499.19
2022-09-09T16:57:59.021Z,100490.31
2022-09-09T16:59:32.551Z,100491.88
2022-09-09T17:01:04.871Z,100486.31
2022-09-09T17:02:36.377Z,100487.78
2022-09-09T17:04:08.744Z,100494.56
2022-09-09T17:05:40.626Z,100495.19
2022-09-09T17:07:12.383Z,100493.97
2022-09-09T17:08:45.215Z,100493.84
2022-09-09T17:10:16.743Z,100498.34
2022-09-09T17:11:48.931Z,100495.53
2022-09-09T17:13:20.573Z,100504.53
2022-09-09T17:14:52.136Z,100492.13
2022-09-09T17:16:24.769Z,100501.13
2022-09-09T17:17:56.387Z,100499.41
2022-09-09T17:19:27.909Z,100505.84
2022-09-09T17:21:03.693Z,100502.47
2022-09-09T17:22:35.625Z,100509.75
2022-09-09T17:24:08.519Z,100504.53
2022-09-09T17:25:40.074Z,100509.00
2022-09-09T17:27:11.547Z,100511.81
2022-09-09T17:28:43.402Z,100518.16
2022-09-09T17:30:16.050Z,100512.16
2022-09-09T17:31:47.807Z,100510.47
2022-09-09T17:33:21.674Z,100512.28
2022-09-09T17:34:56.341Z,100516.91
2022-09-09T17:36:28.917Z,100509.13
2022-09-09T17:38:00.355Z,100514.00
2022-09-09T17:39:33.399Z,100517.03
2022-09-09T17:41:05.719Z,100525.41
2022-09-09T17:42:38.535Z,100519.97
2022-09-09T17:44:10.668Z,100529.41
2022-09-09T17:45:42.666Z,100525.16
2022-09-09T17:47:14.239Z,100524.91
2022-09-09T17:48:45.763Z,100525.25
2022-09-09T17:50:17.424Z,100530.09
2022-09-09T17:51:48.877Z,100538.47
2022-09-09T17:53:20.679Z,100533.38
2022-09-09T17:54:57.511Z,100536.78
2022-09-09T17:56:31.423Z,100536.78
2022-09-09T17:58:02.928Z,100539.69
2022-09-09T17:59:34.407Z,100540.63
2022-09-09T18:01:06.599Z,100544.03
2022-09-09T18:02:38.959Z,100543.31
2022-09-09T18:04:11.198Z,100541.91